createdAt,value
2018-12-13T00:01:14.528Z,1.38
2018-12-13T00:03:25.384Z,1.37
2018-12-13T00:05:36.261Z,1.37
2018-12-13T00:07:47.115Z,1.32
2018-12-13T00:09:57.981Z,1.30
2018-12-13T00:12:08.933Z,1.31
2018-12-13T00:14:19.776Z,1.29
2018-12-13T00:16:30.679Z,1.26
2018-12-13T00:18:41.565Z,1.20
2018-12-13T00:20:52.417Z,1.18
2018-12-13T00:23:03.281Z,1.17
2018-12-13T00:25:14.148Z,1.11
2018-12-13T00:27:25.030Z,0.97
2018-12-13T00:29:35.912Z,0.94
2018-12-13T00:31:46.758Z,0.82
2018-12-13T00:33:57.585Z,0.74
2018-12-13T00:36:08.448Z,0.66
2018-12-13T00:38:20.152Z,0.57
2018-12-13T00:40:30.990Z,0.56
2018-12-13T00:42:41.883Z,0.53
2018-12-13T00:44:52.740Z,0.52
2018-12-13T00:47:03.693Z,0.42
2018-12-13T00:49:14.582Z,0.43
2018-12-13T00:51:25.413Z,0.48
2018-12-13T00:53:36.405Z,0.46
2018-12-13T00:55:47.257Z,0.45
2018-12-13T00:57:58.135Z,0.43
2018-12-13T01:00:09.053Z,0.41
2018-12-13T01:02:19.880Z,0.35
2018-12-13T01:04:30.749Z,0.28
2018-12-13T01:06:46.015Z,0.22
2018-12-13T01:08:54.594Z,0.19
2018-12-13T01:11:05.501Z,0.16
2018-12-13T01:13:16.360Z,0.12
2018-12-13T01:15:29.285Z,0.05
2018-12-13T01:17:40.137Z,0.08
2018-12-13T01:19:51.050Z,0.05
2018-12-13T01:22:01.924Z,0.10
2018-12-13T01:24:12.786Z,0.18
2018-12-13T01:26:23.681Z,0.20
2018-12-13T01:28:35.492Z,0.17
2018-12-13T01:30:46.386Z,0.16
2018-12-13T01:32:58.047Z,0.13
2018-12-13T01:35:08.939Z,0.11
2018-12-13T01:37:19.763Z,0.10
2018-12-13T01:39:30.597Z,0.11
2018-12-13T01:41:41.453Z,0.03
2018-12-13T01:43:52.341Z,-0.01
2018-12-13T01:46:03.350Z,-0.07
2018-12-13T01:48:14.193Z,-0.04
2018-12-13T01:50:25.058Z,0.02
2018-12-13T01:52:35.905Z,0.05
2018-12-13T01:54:46.742Z,0.05
2018-12-13T01:56:57.635Z,0.06
2018-12-13T01:59:08.495Z,0.08
2018-12-13T02:01:19.353Z,0.12
2018-12-13T02:03:30.207Z,0.11
2018-12-13T02:05:41.143Z,0.16
2018-12-13T02:07:52.009Z,0.13
2018-12-13T02:10:03.366Z,0.10
2018-12-13T02:12:14.348Z,0.05
2018-12-13T02:14:25.474Z,-0.03
2018-12-13T02:16:36.498Z,-0.10
2018-12-13T02:18:47.400Z,-0.09
2018-12-13T02:20:59.079Z,-0.06
2018-12-13T02:23:09.997Z,-0.05
2018-12-13T02:25:20.920Z,-0.01
2018-12-13T02:27:31.767Z,0.00
2018-12-13T02:29:42.718Z,-0.12
2018-12-13T02:31:53.737Z,-0.18
2018-12-13T02:34:04.604Z,-0.34
2018-12-13T02:36:15.481Z,-0.38
2018-12-13T02:38:26.397Z,-0.38
2018-12-13T02:40:37.225Z,-0.40
2018-12-13T02:42:48.125Z,-0.46
2018-12-13T02:44:58.942Z,-0.45
2018-12-13T02:47:09.769Z,-0.44
2018-12-13T02:49:20.625Z,-0.47
2018-12-13T02:51:31.466Z,-0.52
2018-12-13T02:53:42.328Z,-0.56
2018-12-13T02:55:54.169Z,-0.51
2018-12-13T02:58:05.021Z,-0.45
2018-12-13T03:00:15.889Z,-0.36
2018-12-13T03:02:26.717Z,-0.35
2018-12-13T03:04:37.561Z,-0.40
2018-12-13T03:06:48.397Z,-0.40
2018-12-13T03:08:59.261Z,-0.40
2018-12-13T03:11:10.073Z,-0.48
2018-12-13T03:13:20.964Z,-0.50
2018-12-13T03:15:31.827Z,-0.41
2018-12-13T03:17:42.667Z,-0.37
2018-12-13T03:19:53.522Z,-0.23
2018-12-13T03:22:04.352Z,-0.13
2018-12-13T03:24:15.180Z,-0.03
2018-12-13T03:26:26.037Z,0.05
2018-12-13T03:28:36.898Z,0.08
2018-12-13T03:30:47.892Z,0.11
2018-12-13T03:32:58.826Z,0.13
2018-12-13T03:35:09.670Z,0.20
2018-12-13T03:37:21.060Z,0.26
2018-12-13T03:39:32.128Z,0.36
2018-12-13T03:41:42.965Z,0.42
2018-12-13T03:43:53.915Z,0.50
2018-12-13T03:46:04.804Z,0.51
2018-12-13T03:48:15.702Z,0.59
2018-12-13T03:50:26.585Z,0.63
2018-12-13T03:52:37.559Z,0.62
2018-12-13T03:54:48.392Z,0.67
2018-12-13T03:56:59.358Z,0.72
2018-12-13T03:59:10.189Z,0.71
2018-12-13T04:01:21.052Z,0.78
2018-12-13T04:03:31.885Z,0.84
2018-12-13T04:05:42.915Z,0.90
2018-12-13T04:07:53.842Z,0.91
2018-12-13T04:10:04.808Z,0.87
2018-12-13T04:12:15.891Z,0.83
2018-12-13T04:14:26.706Z,0.91
2018-12-13T04:16:37.543Z,0.98
2018-12-13T04:18:48.376Z,0.97
2018-12-13T04:20:59.225Z,0.99
2018-12-13T04:23:10.129Z,1.04
2018-12-13T04:25:20.988Z,1.07
2018-12-13T04:27:31.806Z,1.10
2018-12-13T04:29:42.671Z,1.09
2018-12-13T04:31:53.509Z,1.06
2018-12-13T04:34:04.358Z,1.06
2018-12-13T04:36:15.218Z,1.08
2018-12-13T04:38:26.121Z,1.09
2018-12-13T04:40:36.975Z,1.06
2018-12-13T04:42:47.846Z,1.01
2018-12-13T04:44:58.713Z,0.97
2018-12-13T04:47:09.567Z,0.98
2018-12-13T04:49:20.524Z,0.97
2018-12-13T04:51:31.437Z,0.97
2018-12-13T04:53:42.310Z,0.95
2018-12-13T04:55:53.161Z,0.95
2018-12-13T04:58:03.986Z,0.98
2018-12-13T05:00:14.864Z,0.98
2018-12-13T05:02:25.706Z,0.98
2018-12-13T05:04:36.560Z,0.99
2018-12-13T05:06:47.965Z,0.97
2018-12-13T05:08:58.908Z,1.00
2018-12-13T05:11:09.760Z,1.03
2018-12-13T05:13:20.634Z,0.98
2018-12-13T05:15:31.467Z,1.01
2018-12-13T05:17:42.328Z,1.06
2018-12-13T05:19:53.181Z,1.03
2018-12-13T05:22:04.103Z,1.07
2018-12-13T05:24:14.931Z,1.07
2018-12-13T05:26:25.822Z,1.11
2018-12-13T05:28:36.662Z,1.13
2018-12-13T05:30:47.533Z,1.13
2018-12-13T05:32:58.401Z,1.06
2018-12-13T05:35:09.312Z,1.04
2018-12-13T05:37:20.159Z,1.02
2018-12-13T05:39:30.999Z,1.07
2018-12-13T05:41:41.853Z,1.04
2018-12-13T05:43:52.935Z,0.96
2018-12-13T05:46:03.821Z,0.99
2018-12-13T05:48:14.698Z,1.00
2018-12-13T05:50:25.707Z,1.01
2018-12-13T05:52:36.580Z,1.07
2018-12-13T05:54:47.428Z,1.08
2018-12-13T05:56:58.277Z,1.08
2018-12-13T05:59:09.097Z,1.01
2018-12-13T06:01:19.935Z,0.93
2018-12-13T06:03:30.901Z,0.89
2018-12-13T06:05:41.800Z,0.99
2018-12-13T06:07:55.009Z,1.08
2018-12-13T06:10:05.585Z,1.00
2018-12-13T06:12:16.462Z,0.94
2018-12-13T06:14:27.346Z,0.92
2018-12-13T06:16:38.218Z,0.92
2018-12-13T06:18:49.060Z,1.03
2018-12-13T06:20:59.914Z,0.97
2018-12-13T06:23:10.806Z,0.95
2018-12-13T06:25:21.772Z,0.95
2018-12-13T06:27:32.640Z,1.00
2018-12-13T06:29:48.836Z,1.05
2018-12-13T06:31:56.375Z,1.07
2018-12-13T06:34:07.238Z,0.97
2018-12-13T06:36:18.108Z,0.98
2018-12-13T06:38:28.980Z,1.07
2018-12-13T06:40:39.816Z,1.12
2018-12-13T06:42:50.689Z,1.07
2018-12-13T06:45:01.564Z,1.11
2018-12-13T06:47:12.509Z,1.11
2018-12-13T06:49:23.389Z,1.09
2018-12-13T06:51:34.260Z,1.08
2018-12-13T06:53:45.129Z,1.11
2018-12-13T06:55:56.030Z,1.03
2018-12-13T06:58:06.959Z,1.01
2018-12-13T07:00:17.895Z,0.99
2018-12-13T07:02:28.812Z,0.94
2018-12-13T07:04:39.671Z,1.00
2018-12-13T07:06:50.563Z,0.98
2018-12-13T07:09:01.502Z,1.08
2018-12-13T07:11:12.396Z,1.08
2018-12-13T07:13:23.256Z,1.13
2018-12-13T07:15:34.128Z,1.09
2018-12-13T07:17:44.969Z,1.03
2018-12-13T07:19:55.869Z,1.03
2018-12-13T07:22:06.866Z,1.07
2018-12-13T07:24:17.850Z,1.03
2018-12-13T07:26:28.781Z,0.98
2018-12-13T07:28:39.680Z,0.99
2018-12-13T07:30:50.676Z,1.08
2018-12-13T07:33:01.586Z,1.05
2018-12-13T07:35:12.568Z,0.98
2018-12-13T07:37:23.493Z,1.02
2018-12-13T07:39:34.378Z,1.06
2018-12-13T07:41:45.313Z,1.00
2018-12-13T07:43:57.532Z,1.07
2018-12-13T07:46:11.359Z,1.09
2018-12-13T07:48:23.130Z,1.12
2018-12-13T07:50:35.259Z,1.05
2018-12-13T07:52:46.651Z,1.05
2018-12-13T07:54:57.755Z,1.11
2018-12-13T07:57:08.608Z,1.11
2018-12-13T07:59:19.462Z,1.12
2018-12-13T08:01:30.292Z,1.05
2018-12-13T08:03:41.132Z,1.15
2018-12-13T08:05:52.015Z,1.22
2018-12-13T08:08:02.825Z,1.26
2018-12-13T08:10:13.680Z,1.29
2018-12-13T08:12:24.644Z,1.37
2018-12-13T08:14:35.536Z,1.40
2018-12-13T08:16:46.369Z,1.43
2018-12-13T08:18:57.221Z,1.46
2018-12-13T08:21:08.049Z,1.38
2018-12-13T08:23:18.924Z,1.35
2018-12-13T08:25:29.744Z,1.25
2018-12-13T08:27:40.625Z,1.22
2018-12-13T08:29:51.457Z,1.26
2018-12-13T08:32:02.273Z,1.26
2018-12-13T08:34:13.122Z,1.35
2018-12-13T08:36:24.012Z,1.41
2018-12-13T08:38:34.864Z,1.49
2018-12-13T08:40:45.673Z,1.60
2018-12-13T08:42:56.555Z,1.63
2018-12-13T08:45:07.538Z,1.64
2018-12-13T08:47:18.385Z,1.57
2018-12-13T08:49:29.237Z,1.63
2018-12-13T08:51:40.155Z,1.86
2018-12-13T08:53:51.008Z,2.10
2018-12-13T08:56:01.863Z,2.20
2018-12-13T08:58:12.713Z,2.32
2018-12-13T09:00:23.544Z,2.10
2018-12-13T09:02:34.374Z,1.93
2018-12-13T09:04:45.221Z,1.88
2018-12-13T09:06:57.053Z,1.84
2018-12-13T09:09:08.089Z,1.82
2018-12-13T09:11:18.940Z,1.76
2018-12-13T09:13:29.757Z,1.70
2018-12-13T09:15:40.723Z,1.57
2018-12-13T09:17:51.548Z,1.49
2018-12-13T09:20:04.022Z,1.50
2018-12-13T09:22:14.883Z,1.43
2018-12-13T09:24:25.729Z,1.47
2018-12-13T09:26:36.572Z,1.44
2018-12-13T09:28:47.403Z,1.42
2018-12-13T09:30:58.272Z,1.43
2018-12-13T09:33:09.111Z,1.46
2018-12-13T09:35:19.957Z,1.48
2018-12-13T09:37:30.778Z,1.49
2018-12-13T09:39:41.645Z,1.46
2018-12-13T09:41:52.508Z,1.51
2018-12-13T09:44:03.369Z,1.58
2018-12-13T09:46:14.355Z,1.57
2018-12-13T09:48:25.214Z,1.55
2018-12-13T09:50:36.084Z,1.60
2018-12-13T09:52:46.951Z,1.63
2018-12-13T09:54:57.772Z,1.64
2018-12-13T09:57:08.638Z,1.69
2018-12-13T09:59:19.501Z,1.77
2018-12-13T10:01:30.349Z,1.79
2018-12-13T10:03:41.196Z,1.66
2018-12-13T10:05:52.012Z,1.74
2018-12-13T10:08:02.844Z,1.79
2018-12-13T10:10:13.690Z,1.75
2018-12-13T10:12:24.524Z,1.70
2018-12-13T10:14:35.376Z,1.68
2018-12-13T10:16:46.217Z,1.64
2018-12-13T10:18:57.059Z,1.68
2018-12-13T10:21:07.997Z,1.77
2018-12-13T10:23:18.893Z,1.78
2018-12-13T10:25:29.721Z,1.90
2018-12-13T10:27:40.564Z,1.95
2018-12-13T10:29:51.409Z,2.00
2018-12-13T10:32:02.279Z,2.02
2018-12-13T10:34:13.121Z,1.97
2018-12-13T10:36:25.613Z,2.03
2018-12-13T10:38:36.689Z,2.02
2018-12-13T10:40:47.521Z,1.98
2018-12-13T10:42:58.350Z,2.02
2018-12-13T10:45:09.302Z,1.97
2018-12-13T10:47:20.341Z,1.94
2018-12-13T10:49:31.232Z,1.86
2018-12-13T10:51:42.040Z,1.90
2018-12-13T10:53:52.873Z,1.82
2018-12-13T10:56:03.760Z,1.87
2018-12-13T10:58:14.601Z,1.91
2018-12-13T11:00:31.677Z,1.92
2018-12-13T11:03:07.612Z,1.86
2018-12-13T11:05:18.444Z,1.83
2018-12-13T11:07:29.301Z,1.90
2018-12-13T11:09:40.141Z,1.98
2018-12-13T11:11:51.100Z,2.02
2018-12-13T11:14:01.944Z,2.10
2018-12-13T11:16:12.797Z,2.07
2018-12-13T11:18:23.611Z,2.03
2018-12-13T11:20:34.469Z,2.01
2018-12-13T11:22:45.348Z,1.99
2018-12-13T11:24:56.180Z,1.95
2018-12-13T11:27:19.325Z,1.91
2018-12-13T11:29:42.496Z,1.94
2018-12-13T11:31:53.380Z,1.91
2018-12-13T11:34:04.337Z,1.83
2018-12-13T11:36:15.177Z,1.81
2018-12-13T11:38:26.193Z,1.86
2018-12-13T11:40:37.137Z,1.93
2018-12-13T11:42:47.999Z,1.87
2018-12-13T11:44:58.836Z,1.91
2018-12-13T11:47:09.697Z,1.85
2018-12-13T11:49:20.549Z,1.76
2018-12-13T11:51:31.380Z,1.83
2018-12-13T11:53:42.233Z,1.88
2018-12-13T11:55:53.071Z,1.83
2018-12-13T11:58:04.020Z,1.80
2018-12-13T12:00:14.885Z,1.84
2018-12-13T12:02:25.745Z,1.77
2018-12-13T12:04:36.592Z,1.78
2018-12-13T12:06:47.439Z,1.83
2018-12-13T12:08:58.305Z,1.80
2018-12-13T12:11:09.139Z,1.81
2018-12-13T12:13:19.993Z,1.81
2018-12-13T12:15:30.822Z,1.85
2018-12-13T12:17:41.653Z,1.84
2018-12-13T12:19:52.511Z,1.81
2018-12-13T12:22:04.254Z,1.84
2018-12-13T12:24:15.140Z,1.82
2018-12-13T12:26:26.007Z,1.82
2018-12-13T12:28:36.864Z,1.76
2018-12-13T12:30:47.713Z,1.76
2018-12-13T12:32:58.537Z,1.75
2018-12-13T12:35:09.412Z,1.77
2018-12-13T12:37:20.219Z,1.74
2018-12-13T12:39:31.079Z,1.71
2018-12-13T12:41:41.925Z,1.69
2018-12-13T12:43:52.775Z,1.67
2018-12-13T12:46:03.652Z,1.76
2018-12-13T12:48:14.496Z,1.68
2018-12-13T12:50:25.346Z,1.71
2018-12-13T12:52:36.182Z,1.73
2018-12-13T12:54:47.018Z,1.75
2018-12-13T12:56:57.886Z,1.77
2018-12-13T12:59:08.708Z,1.71
2018-12-13T13:01:19.564Z,1.69
2018-12-13T13:03:30.410Z,1.62
2018-12-13T13:05:41.331Z,1.58
2018-12-13T13:07:52.177Z,1.56
2018-12-13T13:10:03.849Z,1.59
2018-12-13T13:12:14.741Z,1.63
2018-12-13T13:14:25.569Z,1.63
2018-12-13T13:16:36.423Z,1.59
2018-12-13T13:18:47.285Z,1.61
2018-12-13T13:20:58.154Z,1.54
2018-12-13T13:23:08.995Z,1.52
2018-12-13T13:25:19.808Z,1.59
2018-12-13T13:27:30.680Z,1.64
2018-12-13T13:29:41.632Z,1.64
2018-12-13T13:31:52.480Z,1.66
2018-12-13T13:34:03.348Z,1.66
2018-12-13T13:36:14.185Z,1.72
2018-12-13T13:38:25.057Z,1.69
2018-12-13T13:40:35.920Z,1.70
2018-12-13T13:42:46.783Z,1.66
2018-12-13T13:44:59.234Z,1.70
2018-12-13T13:47:10.102Z,1.66
2018-12-13T13:49:20.972Z,1.54
2018-12-13T13:51:31.825Z,1.56
2018-12-13T13:53:42.774Z,1.55
2018-12-13T13:55:53.688Z,1.54
2018-12-13T13:58:04.669Z,1.54
2018-12-13T14:00:15.749Z,1.54
2018-12-13T14:02:26.601Z,1.60
2018-12-13T14:04:37.493Z,1.54
2018-12-13T14:06:48.328Z,1.58
2018-12-13T14:08:59.176Z,1.54
2018-12-13T14:11:10.018Z,1.51
2018-12-13T14:13:20.964Z,1.49
2018-12-13T14:15:31.909Z,1.55
2018-12-13T14:17:42.744Z,1.52
2018-12-13T14:19:53.606Z,1.51
2018-12-13T14:22:04.578Z,1.53
2018-12-13T14:24:15.443Z,1.58
2018-12-13T14:26:26.284Z,1.64
2018-12-13T14:28:37.112Z,1.68
2018-12-13T14:30:48.027Z,1.65
2018-12-13T14:32:58.888Z,1.45
2018-12-13T14:35:09.772Z,1.42
2018-12-13T14:37:20.616Z,1.39
2018-12-13T14:39:31.463Z,1.35
2018-12-13T14:41:42.314Z,1.44
2018-12-13T14:43:53.152Z,1.47
2018-12-13T14:46:04.007Z,1.51
2018-12-13T14:48:14.854Z,1.46
2018-12-13T14:50:25.825Z,1.48
2018-12-13T14:52:36.692Z,1.48
2018-12-13T14:54:47.522Z,1.44
2018-12-13T14:56:58.481Z,1.48
2018-12-13T14:59:09.341Z,1.56
2018-12-13T15:01:20.217Z,1.94
2018-12-13T15:03:31.065Z,1.93
2018-12-13T15:05:41.896Z,1.76
2018-12-13T15:07:52.766Z,1.68
2018-12-13T15:10:03.743Z,1.68
2018-12-13T15:12:14.637Z,1.64
2018-12-13T15:14:25.501Z,1.58
2018-12-13T15:16:36.351Z,1.53
2018-12-13T15:18:47.213Z,1.55
2018-12-13T15:20:58.064Z,1.57
2018-12-13T15:23:08.965Z,1.56
2018-12-13T15:25:19.831Z,1.57
2018-12-13T15:27:30.721Z,1.63
2018-12-13T15:29:41.562Z,1.62
2018-12-13T15:31:59.147Z,1.62
2018-12-13T15:34:05.327Z,1.60
2018-12-13T15:36:16.297Z,1.63
2018-12-13T15:38:27.166Z,1.65
2018-12-13T15:40:38.004Z,1.59
2018-12-13T15:42:48.955Z,1.62
2018-12-13T15:44:59.799Z,1.65
2018-12-13T15:47:10.630Z,1.70
2018-12-13T15:49:22.325Z,1.64
2018-12-13T15:51:33.188Z,1.60
2018-12-13T15:53:44.085Z,1.62
2018-12-13T15:55:55.091Z,1.68
2018-12-13T15:58:06.704Z,1.67
2018-12-13T16:00:17.689Z,1.70
2018-12-13T16:02:28.522Z,1.73
2018-12-13T16:04:39.379Z,1.65
2018-12-13T16:06:50.251Z,2.43
2018-12-13T16:09:01.122Z,2.85
2018-12-13T16:11:11.953Z,2.68
2018-12-13T16:13:22.797Z,2.50
2018-12-13T16:15:33.699Z,2.36
2018-12-13T16:17:44.554Z,2.23
2018-12-13T16:19:55.398Z,2.10
2018-12-13T16:22:06.276Z,2.03
2018-12-13T16:24:17.165Z,2.02
2018-12-13T16:26:28.034Z,1.99
2018-12-13T16:28:38.874Z,1.87
2018-12-13T16:30:49.754Z,1.86
2018-12-13T16:33:00.600Z,1.81
2018-12-13T16:35:11.469Z,1.79
2018-12-13T16:37:22.337Z,1.79
2018-12-13T16:39:33.210Z,1.84
2018-12-13T16:41:44.072Z,1.80
2018-12-13T16:43:55.696Z,1.73
2018-12-13T16:46:06.579Z,1.71
2018-12-13T16:48:17.458Z,1.67
2018-12-13T16:50:28.295Z,1.75
2018-12-13T16:52:39.252Z,1.76
2018-12-13T16:54:50.092Z,1.77
2018-12-13T16:57:00.955Z,1.72
2018-12-13T16:59:11.811Z,1.72
2018-12-13T17:01:22.674Z,1.70
2018-12-13T17:03:42.615Z,1.72
2018-12-13T17:05:53.497Z,1.79
2018-12-13T17:08:04.371Z,1.79
2018-12-13T17:10:16.852Z,1.82
2018-12-13T17:12:28.098Z,1.78
2018-12-13T17:14:38.963Z,1.78
2018-12-13T17:16:49.802Z,1.79
2018-12-13T17:19:00.676Z,1.84
2018-12-13T17:21:11.554Z,1.84
2018-12-13T17:23:22.424Z,1.83
2018-12-13T17:25:33.306Z,1.80
2018-12-13T17:27:44.107Z,1.77
2018-12-13T17:29:54.997Z,1.79
2018-12-13T17:32:05.817Z,1.80
2018-12-13T17:34:16.642Z,1.85
2018-12-13T17:36:27.526Z,1.76
2018-12-13T17:38:38.428Z,1.78
2018-12-13T17:40:49.295Z,1.80
2018-12-13T17:43:00.236Z,1.79
2018-12-13T17:45:11.096Z,1.75
2018-12-13T17:47:22.949Z,1.75
2018-12-13T17:49:33.772Z,1.70
2018-12-13T17:51:44.637Z,1.71
2018-12-13T17:53:55.509Z,1.77
2018-12-13T17:56:06.373Z,1.76
2018-12-13T17:58:17.255Z,1.73
2018-12-13T18:00:28.105Z,1.76
2018-12-13T18:02:39.100Z,1.76
2018-12-13T18:04:49.966Z,1.75
2018-12-13T18:07:00.897Z,1.71
2018-12-13T18:09:11.775Z,1.64
2018-12-13T18:11:22.631Z,1.68
2018-12-13T18:13:33.477Z,1.64
2018-12-13T18:15:44.338Z,1.61
2018-12-13T18:17:55.228Z,1.73
2018-12-13T18:20:06.222Z,1.72
2018-12-13T18:22:17.111Z,1.72
2018-12-13T18:24:27.978Z,1.64
2018-12-13T18:26:38.855Z,1.60
2018-12-13T18:28:49.693Z,1.66
2018-12-13T18:31:00.581Z,1.69
2018-12-13T18:33:11.533Z,1.65
2018-12-13T18:35:22.371Z,1.56
2018-12-13T18:37:33.258Z,1.60
2018-12-13T18:39:44.142Z,1.58
2018-12-13T18:41:55.057Z,1.55
2018-12-13T18:44:05.989Z,1.58
2018-12-13T18:46:16.997Z,1.60
2018-12-13T18:48:27.986Z,1.62
2018-12-13T18:50:39.054Z,1.57
2018-12-13T18:52:49.913Z,1.64
2018-12-13T18:55:00.804Z,1.65
2018-12-13T18:57:11.648Z,1.61
2018-12-13T18:59:22.577Z,1.55
2018-12-13T19:01:33.459Z,1.43
2018-12-13T19:03:44.339Z,1.55
2018-12-13T19:05:55.233Z,1.53
2018-12-13T19:08:06.068Z,1.50
2018-12-13T19:10:16.965Z,1.55
2018-12-13T19:12:27.854Z,1.58
2018-12-13T19:14:38.715Z,1.59
2018-12-13T19:16:49.574Z,1.61
2018-12-13T19:19:00.517Z,1.60
2018-12-13T19:21:11.504Z,1.63
2018-12-13T19:23:22.365Z,1.54
2018-12-13T19:25:33.247Z,1.53
2018-12-13T19:27:44.145Z,1.52
2018-12-13T19:29:55.016Z,1.50
2018-12-13T19:32:05.907Z,1.46
2018-12-13T19:34:16.798Z,1.44
2018-12-13T19:36:27.683Z,1.46
2018-12-13T19:38:38.512Z,1.41
2018-12-13T19:40:49.391Z,1.41
2018-12-13T19:43:00.254Z,1.49
2018-12-13T19:45:11.113Z,1.52
2018-12-13T19:47:22.041Z,1.53
2018-12-13T19:49:32.892Z,1.58
2018-12-13T19:51:43.794Z,1.60
2018-12-13T19:53:54.657Z,1.59
2018-12-13T19:56:05.588Z,1.57
2018-12-13T19:58:16.440Z,1.60
2018-12-13T20:00:27.282Z,1.62
2018-12-13T20:02:38.192Z,1.60
2018-12-13T20:04:49.065Z,1.64
2018-12-13T20:06:59.925Z,1.57
2018-12-13T20:09:10.792Z,1.59
2018-12-13T20:11:21.637Z,1.59
2018-12-13T20:13:32.582Z,1.59
2018-12-13T20:15:43.441Z,1.62
2018-12-13T20:17:54.393Z,1.59
2018-12-13T20:20:05.400Z,1.63
2018-12-13T20:22:16.416Z,1.61
2018-12-13T20:24:27.301Z,1.54
2018-12-13T20:26:38.155Z,1.60
2018-12-13T20:28:49.064Z,1.61
2018-12-13T20:30:59.916Z,1.65
2018-12-13T20:33:10.779Z,1.64
2018-12-13T20:35:22.249Z,1.55
2018-12-13T20:37:33.087Z,1.59
2018-12-13T20:39:43.957Z,1.65
2018-12-13T20:41:54.826Z,1.60
2018-12-13T20:44:05.713Z,1.57
2018-12-13T20:46:16.606Z,1.65
2018-12-13T20:48:27.475Z,1.60
2018-12-13T20:50:38.362Z,1.56
2018-12-13T20:52:49.208Z,1.51
2018-12-13T20:55:00.059Z,1.56
2018-12-13T20:57:10.956Z,1.61
2018-12-13T20:59:21.856Z,1.58
2018-12-13T21:01:32.760Z,1.58
2018-12-13T21:03:43.676Z,1.58
2018-12-13T21:05:54.579Z,1.54
2018-12-13T21:08:08.915Z,1.58
2018-12-13T21:10:19.789Z,1.53
2018-12-13T21:12:30.657Z,1.57
2018-12-13T21:14:41.501Z,1.57
2018-12-13T21:16:52.410Z,1.54
2018-12-13T21:19:03.386Z,1.51
2018-12-13T21:21:14.261Z,1.59
2018-12-13T21:23:25.132Z,1.61
2018-12-13T21:25:36.012Z,1.58
2018-12-13T21:27:46.892Z,1.54
2018-12-13T21:29:57.761Z,1.54
2018-12-13T21:32:08.644Z,1.51
2018-12-13T21:34:19.484Z,1.49
2018-12-13T21:36:30.352Z,1.51
2018-12-13T21:38:41.228Z,1.53
2018-12-13T21:40:52.086Z,1.51
2018-12-13T21:43:03.079Z,1.50
2018-12-13T21:45:13.931Z,1.51
2018-12-13T21:47:24.765Z,1.44
2018-12-13T21:49:35.699Z,1.44
2018-12-13T21:51:46.691Z,1.44
2018-12-13T21:53:57.568Z,1.42
2018-12-13T21:56:08.421Z,1.46
2018-12-13T21:58:19.293Z,1.42
2018-12-13T22:00:30.221Z,1.43
2018-12-13T22:02:41.106Z,1.48
2018-12-13T22:04:51.961Z,1.49
2018-12-13T22:07:02.829Z,1.47
2018-12-13T22:09:13.688Z,1.41
2018-12-13T22:11:24.568Z,1.42
2018-12-13T22:13:35.446Z,1.41
2018-12-13T22:15:46.333Z,1.40
2018-12-13T22:17:57.189Z,1.47
2018-12-13T22:20:08.016Z,1.43
2018-12-13T22:22:18.900Z,1.36
2018-12-13T22:24:29.865Z,1.38
2018-12-13T22:26:40.771Z,1.43
2018-12-13T22:28:51.654Z,1.42
2018-12-13T22:31:02.478Z,1.47
2018-12-13T22:33:13.306Z,1.54
2018-12-13T22:35:24.156Z,1.52
2018-12-13T22:37:35.007Z,1.50
2018-12-13T22:39:45.889Z,1.43
2018-12-13T22:41:56.720Z,1.45
2018-12-13T22:44:07.597Z,1.47
2018-12-13T22:46:18.449Z,1.49
2018-12-13T22:48:30.332Z,1.41
2018-12-13T22:50:41.186Z,1.42
2018-12-13T22:52:52.037Z,1.43
2018-12-13T22:55:03.636Z,1.38
2018-12-13T22:57:14.478Z,1.39
2018-12-13T22:59:25.297Z,1.34
2018-12-13T23:01:36.161Z,1.38
2018-12-13T23:03:47.005Z,1.42
2018-12-13T23:05:57.926Z,1.43
2018-12-13T23:08:08.757Z,1.47
2018-12-13T23:10:19.632Z,1.42
2018-12-13T23:12:30.454Z,1.45
2018-12-13T23:14:41.521Z,1.49
2018-12-13T23:16:52.480Z,1.38
2018-12-13T23:19:03.301Z,1.34
2018-12-13T23:21:14.168Z,1.43
2018-12-13T23:23:25.110Z,1.50
2018-12-13T23:25:36.754Z,1.50
2018-12-13T23:27:47.727Z,1.45
2018-12-13T23:29:58.569Z,1.43
2018-12-13T23:32:09.430Z,1.39
2018-12-13T23:34:20.268Z,1.44
2018-12-13T23:36:31.124Z,1.47
2018-12-13T23:38:42.075Z,1.54
2018-12-13T23:40:52.896Z,1.55
2018-12-13T23:43:03.763Z,1.47
2018-12-13T23:45:14.597Z,1.52
2018-12-13T23:47:25.485Z,1.49
2018-12-13T23:49:36.442Z,1.53
2018-12-13T23:51:47.265Z,1.50
2018-12-13T23:53:58.096Z,1.45
2018-12-13T23:56:08.955Z,1.55
2018-12-13T23:58:19.918Z,1.51
